ADDS METAR Data INFO
IDs: Format: Raw Decoded Include TAF

Data at: 0934 UTC 25 Jun 2018

KK88 250915Z AUTO 10008KT 10SM BKN070 OVC080 20/20 A2989 RMK AO1 T02030203
KK88 250855Z AUTO 09010G15KT 10SM BKN080 OVC110 21/20 A2989 RMK AO1 T02050203
KK88 250835Z AUTO 00000KT 10SM SCT080 OVC110 20/20 A2990 RMK AO1 T02040203
KK88 250815Z AUTO 08011KT 10SM BKN110 20/20 A2989 RMK AO1 T02040202
KK88 250755Z AUTO 07004KT 10SM SCT080 SCT110 20/20 A2989 RMK AO1 T02040202
KK88 250735Z AUTO 09003KT 10SM BKN080 BKN110 20/20 A2991 RMK AO1 T02040201
KK88 250715Z AUTO 00000KT 10SM SCT110 20/20 A2991 RMK AO1 T02030200
KK88 250655Z AUTO 10007KT 10SM SCT110 20/20 A2990 RMK AO1 T02030202
KK88 250635Z AUTO 00000KT 10SM BKN110 21/20 A2990 RMK AO1 T02050203
KK88 250615Z AUTO 00000KT 10SM OVC090 21/21 A2991 RMK AO1 T02050205
KK88 250555Z AUTO 00000KT 10SM BKN090 OVC110 21/21 A2991 RMK AO1 T02050205 10238 20203
KK88 250535Z AUTO 00000KT 10SM SCT090 BKN120 21/21 A2990 RMK AO1 T02050205
KK88 250515Z AUTO 09004KT 10SM BKN120 21/21 A2989 RMK AO1 T02050205
KK88 250455Z AUTO 00000KT 10SM BKN120 21/21 A2989 RMK AO1 T02060206 402460192
KK88 250435Z AUTO 00000KT 10SM BKN120 21/21 A2991 RMK AO1 T02080208
KK88 250415Z AUTO 00000KT 10SM SCT120 21/21 A2991 RMK AO1 T02070207
KK88 250355Z AUTO 00000KT 10SM CLR 21/21 A2992 RMK AO1 T02070207
KK88 250335Z AUTO 00000KT 10SM CLR 21/21 A2991 RMK AO1 T02070207
KK88 250315Z AUTO 00000KT 10SM CLR 21/21 A2990 RMK AO1 T02080208
KK88 250255Z AUTO 00000KT 10SM CLR 21/21 A2990 RMK AO1 T02100210
KK88 250235Z AUTO 00000KT 10SM CLR 21/21 A2990 RMK AO1 T02130211
KK88 250215Z AUTO 00000KT 10SM CLR 21/21 A2990 RMK AO1 T02140212
KK88 250155Z AUTO 00000KT 10SM CLR 22/21 A2989 RMK AO1 T02160211
KK88 250135Z AUTO 00000KT 10SM CLR 22/21 A2989 RMK AO1 T02210212
KK88 250115Z AUTO 00000KT 10SM CLR 23/21 A2988 RMK AO1 T02300210
KK88 250055Z AUTO 00000KT 10SM CLR 23/21 A2989 RMK AO1 T02330207
KK88 250035Z AUTO 00000KT 10SM CLR 24/20 A2988 RMK AO1 T02360204
KK88 250015Z AUTO 00000KT 10SM CLR 24/20 A2987 RMK AO1 T02370201
KK88 242355Z AUTO 00000KT 10SM CLR 24/20 A2986 RMK AO1 T02380201 10246 20228
KK88 242335Z AUTO 00000KT 10SM CLR 24/20 A2986 RMK AO1 T02400200
KK88 242315Z AUTO 00000KT 10SM CLR 24/20 A2986 RMK AO1 T02400201
KK88 242255Z AUTO 15003KT 10SM CLR 24/20 A2987 RMK AO1 T02420204
KK88 242235Z AUTO 13009KT 10SM CLR 25/21 A2989 RMK AO1 T02450206
KK88 242215Z AUTO 13009KT 10SM CLR 24/20 A2988 RMK AO1 T02420201
KK88 242155Z AUTO 11008KT 10SM CLR 25/20 A2988 RMK AO1 T02450202
KK88 242135Z AUTO 08009KT 10SM CLR 24/20 A2987 RMK AO1 T02430198
KK88 242115Z AUTO 09010KT 10SM CLR 24/20 A2989 RMK AO1 T02440201
KK88 242055Z AUTO 09008KT 10SM SCT017 SCT022 25/20 A2991 RMK AO1 T02450202
KK88 242035Z AUTO 08008KT 10SM CLR 25/21 A2992 RMK AO1 T02450206
KK88 242015Z AUTO 09011KT 10SM CLR 24/20 A2989 RMK AO1 T02440203
KK88 241955Z AUTO 10011KT 10SM CLR 24/21 A2987 RMK AO1 T02420207
KK88 241935Z AUTO 12011KT 10SM CLR 24/22 A2986 RMK AO1 T02400215
KK88 241915Z AUTO 00000KT 10SM CLR 23/21 A2986 RMK AO1 T02330212
KK88 241855Z AUTO 00000KT 10SM CLR 23/22 A2988 RMK AO1 T02330221
KK88 241835Z AUTO 00000KT 10SM SCT120 23/22 A2990 RMK AO1 T02320218
KK88 241815Z AUTO 00000KT 10SM BKN120 23/22 A2991 RMK AO1 T02290215
KK88 241755Z AUTO 00000KT 10SM SCT016 SCT024 SCT120 23/22 A2993 RMK AO1 60005 T02300217 10235 20200
KK88 241735Z AUTO 00000KT 10SM SCT016 BKN026 OVC110 23/22 A2995 RMK AO1 T02270220
KK88 241715Z AUTO 00000KT 10SM SCT015 SCT021 BKN110 23/22 A2996 RMK AO1 T02310218
KK88 241655Z AUTO 00000KT 7SM SCT025 BKN035 BKN044 23/22 A2995 RMK AO1 P0002 T02300220
KK88 241635Z AUTO 00000KT 10SM SCT060 BKN080 OVC110 23/21 A2994 RMK AO1 P0001 T02280207
KK88 241615Z AUTO 00000KT 10SM SCT080 BKN110 23/20 A2992 RMK AO1 T02270202
KK88 241555Z AUTO 00000KT 10SM SCT120 23/20 A2990 RMK AO1 T02280200
KK88 241535Z AUTO 00000KT 10SM CLR 23/20 A2987 RMK AO1 T02270198
KK88 241515Z AUTO 00000KT 10SM CLR 22/20 A2986 RMK AO1 T02210198
KK88 241455Z AUTO 00000KT 10SM CLR 22/20 A2984 RMK AO1 60003 T02200204
KK88 241435Z AUTO 00000KT 10SM CLR 22/20 A2982 RMK AO1 T02160201
KK88 241415Z AUTO 12007KT 10SM CLR 21/19 A2979 RMK AO1 T02140193
KK88 241355Z AUTO 00000KT 10SM SCT110 21/20 A2976 RMK AO1 T02100200
KK88 241335Z AUTO 13004KT 10SM BKN110 20/20 A2978 RMK AO1 T02020196
KK88 241315Z AUTO 14010G14KT 10SM SCT008 SCT030 BKN100 20/20 A2981 RMK AO1 T02000200
KK88 241255Z AUTO 12010KT 10SM SCT036 SCT049 OVC090 20/20 A2983 RMK AO1 P0003 T02000200
KK88 241235Z AUTO 21016G26KT 5SM SCT020 SCT038 BKN120 21/20 A2982 RMK AO1 P0002 T02060203
KK88 241215Z AUTO 21015G19KT 10SM SCT046 SCT060 BKN120 21/20 A2981 RMK AO1 P0001 T02100198
KK88 241155Z AUTO 18008KT 10SM SCT050 SCT060 BKN080 21/20 A2983 RMK AO1 P0001 60001 70001 T02090195 10213 20192
KK88 241135Z AUTO 00000KT 10SM SCT060 SCT070 OVC110 21/20 A2985 RMK AO1 T02090198
KK88 241115Z AUTO 00000KT 10SM SCT042 SCT080 BKN120 21/19 A2984 RMK AO1 T02120190
KK88 241055Z AUTO 00000KT 10SM SCT042 SCT120 21/19 A2984 RMK AO1 T02070190
KK88 241035Z AUTO 00000KT 10SM CLR 21/19 A2983 RMK AO1 T02060191
KK88 241015Z AUTO 00000KT 10SM CLR 21/19 A2982 RMK AO1 T02050190
KK88 240955Z AUTO 00000KT 10SM CLR 20/19 A2983 RMK AO1 T02020188
KK88 240935Z AUTO 00000KT 10SM CLR 20/19 A2980 RMK AO1 T02010190
KK88 240915Z AUTO 00000KT 10SM CLR 20/18 A2981 RMK AO1 T01960184
KK88 240855Z AUTO 00000KT 10SM CLR 21/18 A2983 RMK AO1 T02050182
KK88 240835Z AUTO 00000KT 10SM CLR 20/18 A2983 RMK AO1 T02020183
KK88 240815Z AUTO 00000KT 10SM CLR 20/18 A2985 RMK AO1 T02020176
KK88 240755Z AUTO 00000KT 10SM SCT120 21/18 A2984 RMK AO1 T02060178
KK88 240735Z AUTO 00000KT 10SM BKN120 21/18 A2983 RMK AO1 T02050176
KK88 240715Z AUTO 00000KT 10SM BKN110 21/18 A2983 RMK AO1 T02060176
KK88 240655Z AUTO 00000KT 10SM SCT110 20/18 A2984 RMK AO1 T02020175
KK88 240635Z AUTO 00000KT 10SM SCT110 20/17 A2983 RMK AO1 T01980174
KK88 240615Z AUTO 00000KT 10SM CLR 20/17 A2983 RMK AO1 T01960172
KK88 240555Z AUTO 00000KT 10SM CLR 19/17 A2984 RMK AO1 T01940174 10296 20194
KK88 240535Z AUTO 00000KT 10SM CLR 20/17 A2983 RMK AO1 T02040173
KK88 240515Z AUTO 00000KT 10SM CLR 20/18 A2983 RMK AO1 T01970176
KK88 240455Z AUTO 00000KT 10SM CLR 21/18 A2983 RMK AO1 T02050176 403050165
KK88 240435Z AUTO 00000KT 10SM CLR 22/17 A2984 RMK AO1 T02150173
KK88 240415Z AUTO 00000KT 10SM CLR 21/18 A2983 RMK AO1 T02080175
KK88 240355Z AUTO 00000KT 10SM CLR 21/18 A2983 RMK AO1 T02140176
KK88 240335Z AUTO 00000KT 10SM CLR 22/18 A2984 RMK AO1 T02170177
KK88 240315Z AUTO 00000KT 10SM CLR 22/18 A2984 RMK AO1 T02210177
KK88 240255Z AUTO 00000KT 10SM CLR 23/18 A2983 RMK AO1 T02280178
KK88 240235Z AUTO 00000KT 7SM CLR 23/18 A2983 RMK AO1 T02270180
KK88 240215Z AUTO 00000KT 10SM CLR 24/18 A2982 RMK AO1 T02350178
KK88 240155Z AUTO 00000KT 10SM CLR 25/18 A2981 RMK AO1 T02450180
KK88 240135Z AUTO 00000KT 10SM CLR 25/18 A2981 RMK AO1 T02520180
KK88 240115Z AUTO 00000KT 10SM CLR 26/18 A2980 RMK AO1 T02560178
KK88 240055Z AUTO 00000KT 7SM CLR 27/18 A2980 RMK AO1 T02670178
KK88 240035Z AUTO 00000KT 10SM CLR 29/17 A2980 RMK AO1 T02850170
KK88 240015Z AUTO 00000KT 10SM CLR 29/17 A2980 RMK AO1 T02930165
KK88 232355Z AUTO 00000KT 10SM CLR 30/16 A2980 RMK AO1 T02960162 10305 20274
KK88 232335Z AUTO 00000KT 10SM SCT055 30/16 A2980 RMK AO1 T02980158
KK88 232315Z AUTO 20008KT 10SM CLR 30/16 A2980 RMK AO1 T02980161
KK88 232255Z AUTO 21003KT 10SM SCT055 30/16 A2981 RMK AO1 T02960162
KK88 232235Z AUTO 21003KT 10SM SCT055 30/16 A2981 RMK AO1 T02960162
KK88 232215Z AUTO 00000KT 10SM CLR 30/16 A2982 RMK AO1 T03010162
KK88 232155Z AUTO 00000KT 10SM CLR 30/16 A2982 RMK AO1 T03020159
KK88 232135Z AUTO 23008KT 10SM SCT050 30/16 A2982 RMK AO1 T03010159